createdAt,value
2024-01-04T00:00:51.875Z,1.23
2024-01-04T00:05:53.807Z,1.23
2024-01-04T00:10:55.747Z,1.23
2024-01-04T00:15:57.699Z,0.95
2024-01-04T00:20:59.687Z,1.00
2024-01-04T00:26:01.687Z,0.80
2024-01-04T00:31:03.589Z,0.80
2024-01-04T00:36:06.268Z,1.00
2024-01-04T00:41:08.136Z,1.15
2024-01-04T00:46:09.883Z,0.50
2024-01-04T00:51:11.733Z,0.70
2024-01-04T00:56:14.941Z,1.25
2024-01-04T01:01:16.747Z,0.93
2024-01-04T01:06:18.645Z,0.73
2024-01-04T01:11:20.647Z,1.02
2024-01-04T01:16:22.915Z,0.50
2024-01-04T01:21:24.706Z,0.77
2024-01-04T01:26:26.417Z,0.63
2024-01-04T01:31:28.168Z,1.17
2024-01-04T01:36:29.952Z,0.50
2024-01-04T01:41:32.056Z,0.70
2024-01-04T01:46:34.582Z,0.60
2024-01-04T01:51:37.483Z,0.70
2024-01-04T01:56:39.945Z,1.00
2024-01-04T02:01:41.790Z,0.63
2024-01-04T02:06:43.612Z,0.77
2024-01-04T02:11:46.710Z,0.60
2024-01-04T02:16:48.486Z,0.73
2024-01-04T02:21:50.236Z,0.80
2024-01-04T02:26:52.706Z,0.60
2024-01-04T02:31:54.403Z,0.80
2024-01-04T02:36:56.149Z,0.98
2024-01-04T02:41:57.930Z,0.60
2024-01-04T02:46:59.797Z,0.60
2024-01-04T02:52:01.522Z,0.40
2024-01-04T02:57:03.542Z,1.00
2024-01-04T03:02:05.970Z,1.00
2024-01-04T03:07:08.003Z,1.00
2024-01-04T03:12:10.101Z,0.68
2024-01-04T03:17:11.840Z,1.27
2024-01-04T03:22:13.504Z,1.05
2024-01-04T03:27:15.189Z,0.98
2024-01-04T03:32:17.481Z,1.02
2024-01-04T03:37:19.390Z,0.80
2024-01-04T03:42:21.140Z,1.05
2024-01-04T03:47:22.929Z,0.93
2024-01-04T03:52:26.227Z,1.17
2024-01-04T03:57:28.079Z,1.30
2024-01-04T04:02:29.812Z,0.80
2024-01-04T04:07:31.555Z,0.98
2024-01-04T04:12:33.239Z,1.13
2024-01-04T04:17:35.133Z,1.15
2024-01-04T04:22:36.963Z,1.08
2024-01-04T04:27:39.148Z,0.93
2024-01-04T04:32:40.914Z,1.00
2024-01-04T04:37:42.809Z,1.17
2024-01-04T04:42:44.586Z,4.80
2024-01-04T04:47:46.435Z,0.98
2024-01-04T04:52:48.223Z,1.25
2024-01-04T04:57:49.940Z,0.85
2024-01-04T05:02:51.708Z,0.60
2024-01-04T05:07:53.590Z,1.23
2024-01-04T05:12:55.398Z,0.73
2024-01-04T05:17:57.270Z,1.00
2024-01-04T05:22:59.383Z,1.02
2024-01-04T05:28:01.264Z,0.90
2024-01-04T05:33:03.186Z,0.70
2024-01-04T05:38:05.118Z,0.60
2024-01-04T05:43:08.256Z,0.77
2024-01-04T05:48:10.120Z,5.85
2024-01-04T05:53:12.051Z,0.80
2024-01-04T05:58:13.799Z,0.70
2024-01-04T06:03:15.801Z,1.10
2024-01-04T06:08:17.905Z,0.95
2024-01-04T06:13:22.309Z,1.08
2024-01-04T06:18:24.165Z,0.88
2024-01-04T06:23:26.569Z,0.93
2024-01-04T06:28:28.416Z,1.60
2024-01-04T06:33:30.189Z,1.23
2024-01-04T06:38:32.026Z,1.10
2024-01-04T06:43:33.743Z,1.60
2024-01-04T06:48:35.597Z,9.02
2024-01-04T06:53:37.347Z,1.25
2024-01-04T06:58:39.292Z,1.10
2024-01-04T07:03:43.496Z,1.25
2024-01-04T07:08:45.329Z,1.52
2024-01-04T07:13:47.028Z,1.73
2024-01-04T07:18:51.928Z,1.25
2024-01-04T07:23:53.751Z,1.05
2024-01-04T07:28:55.537Z,1.13
2024-01-04T07:33:57.359Z,1.70
2024-01-04T07:39:05.289Z,1.15
2024-01-04T07:44:07.060Z,1.20
2024-01-04T07:49:08.967Z,1.20
2024-01-04T07:54:14.028Z,1.60
2024-01-04T07:59:18.737Z,1.30
2024-01-04T08:04:20.605Z,1.60
2024-01-04T08:09:22.566Z,2.35
2024-01-04T08:14:24.391Z,2.33
2024-01-04T08:19:26.477Z,2.25
2024-01-04T08:24:29.912Z,2.20
2024-01-04T08:29:32.008Z,2.45
2024-01-04T08:34:34.954Z,2.20
2024-01-04T08:39:36.818Z,2.75
2024-01-04T08:44:38.570Z,1.92
2024-01-04T08:49:41.262Z,2.47
2024-01-04T08:54:43.366Z,2.33
2024-01-04T08:59:45.193Z,1.60
2024-01-04T09:04:47.009Z,1.80
2024-01-04T09:09:48.799Z,2.15
2024-01-04T09:14:50.594Z,1.80
2024-01-04T09:19:53.133Z,1.33
2024-01-04T09:24:55.780Z,1.20
2024-01-04T09:29:57.606Z,1.02
2024-01-04T09:34:59.477Z,1.60
2024-01-04T09:40:01.289Z,1.33
2024-01-04T09:45:06.107Z,1.63
2024-01-04T09:50:12.046Z,25.48
2024-01-04T09:55:14.175Z,2.72
2024-01-04T10:00:16.356Z,2.22
2024-01-04T10:05:20.010Z,1.83
2024-01-04T10:10:22.346Z,2.63
2024-01-04T10:15:24.186Z,3.20
2024-01-04T10:20:25.980Z,2.53
2024-01-04T10:25:27.710Z,2.60
2024-01-04T10:30:30.483Z,2.95
2024-01-04T10:35:32.376Z,2.80
2024-01-04T10:40:34.070Z,3.00
2024-01-04T10:45:35.812Z,3.47
2024-01-04T10:50:40.095Z,3.47
2024-01-04T10:55:43.314Z,4.72
2024-01-04T11:00:46.432Z,4.18
2024-01-04T11:05:48.880Z,4.57
2024-01-04T11:10:53.299Z,5.05
2024-01-04T11:15:59.494Z,4.88
2024-01-04T11:21:08.764Z,4.22
2024-01-04T11:26:23.871Z,4.07
2024-01-04T11:31:26.294Z,4.18
2024-01-04T11:36:28.412Z,4.07
2024-01-04T11:41:37.903Z,4.35
2024-01-04T11:46:42.351Z,4.63
2024-01-04T11:51:51.917Z,4.47
2024-01-04T11:56:53.715Z,5.88
2024-01-04T12:01:56.580Z,4.93
2024-01-04T12:07:02.345Z,5.32
2024-01-04T12:12:05.472Z,4.47
2024-01-04T12:17:07.241Z,4.10
2024-01-04T12:22:08.952Z,5.25
2024-01-04T12:27:11.780Z,4.53
2024-01-04T12:32:15.890Z,3.92
2024-01-04T12:37:19.920Z,4.47
2024-01-04T12:42:22.786Z,4.07
2024-01-04T12:47:26.336Z,3.92
2024-01-04T12:52:28.029Z,5.20
2024-01-04T12:57:29.818Z,3.60
2024-01-04T13:02:31.605Z,2.67
2024-01-04T13:07:33.310Z,3.65
2024-01-04T13:12:35.092Z,3.72
2024-01-04T13:17:37.012Z,3.70
2024-01-04T13:22:38.764Z,3.25
2024-01-04T13:27:40.531Z,2.53
2024-01-04T13:32:44.301Z,2.28
2024-01-04T13:37:46.350Z,1.40
2024-01-04T13:42:48.098Z,1.48
2024-01-04T13:47:50.864Z,0.95
2024-01-04T13:52:52.666Z,1.00
2024-01-04T13:57:57.527Z,0.80
2024-01-04T14:02:59.730Z,0.90
2024-01-04T14:08:01.608Z,0.90
2024-01-04T14:13:07.392Z,0.95
2024-01-04T14:18:09.369Z,1.45
2024-01-04T14:23:11.235Z,1.50
2024-01-04T14:28:13.091Z,1.00
2024-01-04T14:33:24.382Z,1.25
2024-01-04T14:38:31.530Z,1.30
2024-01-04T14:43:34.336Z,1.27
2024-01-04T14:48:36.211Z,1.40
2024-01-04T14:53:38.880Z,2.03
2024-01-04T14:58:42.743Z,2.50
2024-01-04T15:03:45.717Z,2.30
2024-01-04T15:08:47.549Z,2.33
2024-01-04T15:13:49.491Z,3.15
2024-01-04T15:18:54.024Z,2.30
2024-01-04T15:23:56.140Z,2.60
2024-01-04T15:28:59.404Z,2.47
2024-01-04T15:34:01.406Z,2.95
2024-01-04T15:39:04.432Z,2.88
2024-01-04T15:44:10.064Z,4.55
2024-01-04T15:49:12.215Z,2.67
2024-01-04T15:54:14.384Z,3.30
2024-01-04T15:59:16.201Z,2.67
2024-01-04T16:04:18.001Z,3.03
2024-01-04T16:09:20.515Z,2.70
2024-01-04T16:14:22.514Z,2.80
2024-01-04T16:19:24.409Z,3.08
2024-01-04T16:24:26.415Z,3.45
2024-01-04T16:29:31.469Z,3.25
2024-01-04T16:34:34.031Z,3.00
2024-01-04T16:39:36.033Z,4.25
2024-01-04T16:44:39.513Z,4.57
2024-01-04T16:49:43.817Z,5.18
2024-01-04T16:54:48.328Z,5.47
2024-01-04T16:59:50.193Z,10.13
2024-01-04T17:04:52.105Z,5.65
2024-01-04T17:10:00.900Z,5.20
2024-01-04T17:15:03.774Z,5.47
2024-01-04T17:20:11.724Z,5.80
2024-01-04T17:25:13.547Z,5.38
2024-01-04T17:30:22.691Z,5.10
2024-01-04T17:35:24.742Z,5.40
2024-01-04T17:40:26.748Z,4.82
2024-01-04T17:45:32.577Z,5.70
2024-01-04T17:50:38.294Z,5.07
2024-01-04T17:55:40.074Z,4.50
2024-01-04T18:06:01.346Z,6.38
2024-01-04T18:11:03.944Z,6.90
2024-01-04T18:16:13.057Z,5.90
2024-01-04T18:21:19.045Z,4.37
2024-01-04T18:26:22.214Z,4.95
2024-01-04T18:31:24.154Z,5.57
2024-01-04T18:36:26.149Z,6.30
2024-01-04T18:41:27.981Z,5.80
2024-01-04T18:46:29.745Z,6.60
2024-01-04T18:51:31.587Z,5.40
2024-01-04T18:56:34.551Z,4.53
2024-01-04T19:01:38.623Z,6.00
2024-01-04T19:06:47.932Z,5.22
2024-01-04T19:11:49.878Z,6.88
2024-01-04T19:16:51.723Z,6.57
2024-01-04T19:21:53.526Z,6.10
2024-01-04T19:26:55.431Z,5.22
2024-01-04T19:31:58.263Z,6.00
2024-01-04T19:37:00.681Z,6.32
2024-01-04T19:42:02.538Z,6.35
2024-01-04T19:47:04.911Z,7.82
2024-01-04T19:52:06.678Z,5.72
2024-01-04T19:57:08.659Z,6.90
2024-01-04T20:02:10.469Z,8.07
2024-01-04T20:07:13.426Z,6.70
2024-01-04T20:12:15.469Z,6.70
2024-01-04T20:17:18.958Z,7.18
2024-01-04T20:22:20.733Z,8.02
2024-01-04T20:27:22.669Z,10.98
2024-01-04T20:32:25.518Z,12.38
2024-01-04T20:37:27.490Z,7.97
2024-01-04T20:42:29.540Z,8.68
2024-01-04T20:47:33.627Z,8.25
2024-01-04T20:52:35.642Z,7.50
2024-01-04T20:57:37.561Z,8.48
2024-01-04T21:02:39.439Z,7.93
2024-01-04T21:07:41.262Z,8.00
2024-01-04T21:12:43.394Z,7.35
2024-01-04T21:17:45.288Z,6.70
2024-01-04T21:22:48.607Z,7.75
2024-01-04T21:27:50.532Z,7.63
2024-01-04T21:32:52.315Z,7.70
2024-01-04T21:37:54.493Z,7.00
2024-01-04T21:42:56.503Z,8.35
2024-01-04T21:47:58.363Z,6.63
2024-01-04T21:53:00.254Z,7.93
2024-01-04T21:58:02.080Z,8.75
2024-01-04T22:03:04.269Z,7.43
2024-01-04T22:08:06.285Z,6.68
2024-01-04T22:13:08.708Z,7.38
2024-01-04T22:18:10.679Z,8.02
2024-01-04T22:23:12.992Z,11.27
2024-01-04T22:28:14.931Z,7.50
2024-01-04T22:33:17.022Z,7.03
2024-01-04T22:38:18.849Z,5.93
2024-01-04T22:43:20.729Z,6.20
2024-01-04T22:48:24.308Z,6.90
2024-01-04T22:53:26.146Z,6.63
2024-01-04T22:58:27.877Z,6.50
2024-01-04T23:03:29.684Z,6.82
2024-01-04T23:08:31.842Z,6.93
2024-01-04T23:13:33.602Z,6.82
2024-01-04T23:18:35.597Z,6.75
2024-01-04T23:23:37.497Z,6.53
2024-01-04T23:28:40.798Z,6.95
2024-01-04T23:33:45.517Z,6.40
2024-01-04T23:38:47.369Z,5.90
2024-01-04T23:43:49.166Z,5.82
2024-01-04T23:48:51.034Z,5.88
2024-01-04T23:53:52.964Z,8.43
2024-01-04T23:58:54.716Z,5.72
